sensor_id;sensor_type;location;lat;lon;timestamp;temperature;humidity
25906;DHT22;13713;52.552;13.204;2022-10-16T00:01:47;18.60;75.10
25906;DHT22;13713;52.552;13.204;2022-10-16T00:04:13;18.60;75.30
25906;DHT22;13713;52.552;13.204;2022-10-16T00:06:39;18.70;75.20
25906;DHT22;13713;52.552;13.204;2022-10-16T00:09:05;18.60;75.20
25906;DHT22;13713;52.552;13.204;2022-10-16T00:11:34;18.60;75.20
25906;DHT22;13713;52.552;13.204;2022-10-16T00:14:03;18.60;75.30
25906;DHT22;13713;52.552;13.204;2022-10-16T00:16:29;18.60;75.20
25906;DHT22;13713;52.552;13.204;2022-10-16T00:18:55;18.60;75.10
25906;DHT22;13713;52.552;13.204;2022-10-16T00:21:23;18.60;75.20
25906;DHT22;13713;52.552;13.204;2022-10-16T00:24:03;18.60;75.10
25906;DHT22;13713;52.552;13.204;2022-10-16T00:26:30;18.60;75.20
25906;DHT22;13713;52.552;13.204;2022-10-16T00:28:57;18.60;75.10
25906;DHT22;13713;52.552;13.204;2022-10-16T00:31:23;18.60;75.10
25906;DHT22;13713;52.552;13.204;2022-10-16T00:33:49;18.60;75.10
25906;DHT22;13713;52.552;13.204;2022-10-16T00:36:18;18.60;75.10
25906;DHT22;13713;52.552;13.204;2022-10-16T00:38:45;18.70;75.30
25906;DHT22;13713;52.552;13.204;2022-10-16T00:41:14;18.60;75.10
25906;DHT22;13713;52.552;13.204;2022-10-16T00:43:47;18.60;75.10
25906;DHT22;13713;52.552;13.204;2022-10-16T00:48:43;18.60;75.30
25906;DHT22;13713;52.552;13.204;2022-10-16T00:51:10;18.60;75.30
25906;DHT22;13713;52.552;13.204;2022-10-16T00:53:36;18.60;75.30
25906;DHT22;13713;52.552;13.204;2022-10-16T00:56:02;18.60;75.30
25906;DHT22;13713;52.552;13.204;2022-10-16T00:58:28;18.70;75.40
25906;DHT22;13713;52.552;13.204;2022-10-16T01:00:53;18.60;75.30
25906;DHT22;13713;52.552;13.204;2022-10-16T01:03:33;18.60;75.40
25906;DHT22;13713;52.552;13.204;2022-10-16T01:06:05;18.60;75.40
25906;DHT22;13713;52.552;13.204;2022-10-16T01:12:01;18.60;75.40
25906;DHT22;13713;52.552;13.204;2022-10-16T01:14:48;18.60;75.40
25906;DHT22;13713;52.552;13.204;2022-10-16T01:17:23;18.60;75.40
25906;DHT22;13713;52.552;13.204;2022-10-16T01:20:04;18.50;75.30
25906;DHT22;13713;52.552;13.204;2022-10-16T01:28:13;18.60;75.30
25906;DHT22;13713;52.552;13.204;2022-10-16T01:30:41;18.60;75.30
25906;DHT22;13713;52.552;13.204;2022-10-16T01:33:21;18.60;75.40
25906;DHT22;13713;52.552;13.204;2022-10-16T01:35:53;18.60;75.40
25906;DHT22;13713;52.552;13.204;2022-10-16T01:38:36;18.60;75.30
25906;DHT22;13713;52.552;13.204;2022-10-16T01:41:12;18.60;75.30
25906;DHT22;13713;52.552;13.204;2022-10-16T01:43:49;18.60;75.30
25906;DHT22;13713;52.552;13.204;2022-10-16T01:46:18;18.60;75.30
25906;DHT22;13713;52.552;13.204;2022-10-16T01:48:46;18.60;75.30
25906;DHT22;13713;52.552;13.204;2022-10-16T01:51:14;18.60;75.20
25906;DHT22;13713;52.552;13.204;2022-10-16T01:53:44;18.60;75.20
25906;DHT22;13713;52.552;13.204;2022-10-16T01:56:12;18.60;75.40
25906;DHT22;13713;52.552;13.204;2022-10-16T01:58:45;18.60;75.30
25906;DHT22;13713;52.552;13.204;2022-10-16T02:01:13;18.60;75.30
25906;DHT22;13713;52.552;13.204;2022-10-16T02:03:42;18.60;75.30
25906;DHT22;13713;52.552;13.204;2022-10-16T02:06:08;18.60;75.30
25906;DHT22;13713;52.552;13.204;2022-10-16T02:08:35;18.60;75.30
25906;DHT22;13713;52.552;13.204;2022-10-16T02:11:01;18.60;75.30
25906;DHT22;13713;52.552;13.204;2022-10-16T02:13:34;18.60;75.30
25906;DHT22;13713;52.552;13.204;2022-10-16T02:16:01;18.60;75.40
25906;DHT22;13713;52.552;13.204;2022-10-16T02:18:26;18.60;75.40
25906;DHT22;13713;52.552;13.204;2022-10-16T02:20:59;18.60;75.40
25906;DHT22;13713;52.552;13.204;2022-10-16T02:24:01;18.60;75.40
25906;DHT22;13713;52.552;13.204;2022-10-16T02:26:38;18.50;75.30
25906;DHT22;13713;52.552;13.204;2022-10-16T02:29:08;18.60;75.50
25906;DHT22;13713;52.552;13.204;2022-10-16T02:31:40;18.60;75.30
25906;DHT22;13713;52.552;13.204;2022-10-16T02:34:06;18.60;75.40
25906;DHT22;13713;52.552;13.204;2022-10-16T02:36:34;18.50;75.20
25906;DHT22;13713;52.552;13.204;2022-10-16T02:39:01;18.60;75.40
25906;DHT22;13713;52.552;13.204;2022-10-16T02:41:30;18.60;75.40
25906;DHT22;13713;52.552;13.204;2022-10-16T02:43:55;18.60;75.40
25906;DHT22;13713;52.552;13.204;2022-10-16T02:46:21;18.50;75.30
25906;DHT22;13713;52.552;13.204;2022-10-16T02:48:47;18.50;75.30
25906;DHT22;13713;52.552;13.204;2022-10-16T02:51:12;18.50;75.30
25906;DHT22;13713;52.552;13.204;2022-10-16T02:53:38;18.60;75.40
25906;DHT22;13713;52.552;13.204;2022-10-16T02:56:04;18.60;75.40
25906;DHT22;13713;52.552;13.204;2022-10-16T02:58:29;18.60;75.30
25906;DHT22;13713;52.552;13.204;2022-10-16T03:00:55;18.50;75.30
25906;DHT22;13713;52.552;13.204;2022-10-16T03:03:21;18.50;75.20
25906;DHT22;13713;52.552;13.204;2022-10-16T03:05:46;18.60;75.30
25906;DHT22;13713;52.552;13.204;2022-10-16T03:08:13;18.60;75.20
25906;DHT22;13713;52.552;13.204;2022-10-16T03:10:38;18.60;75.30
25906;DHT22;13713;52.552;13.204;2022-10-16T03:13:04;18.60;75.30
25906;DHT22;13713;52.552;13.204;2022-10-16T03:15:30;18.60;75.30
25906;DHT22;13713;52.552;13.204;2022-10-16T03:17:59;18.60;75.20
25906;DHT22;13713;52.552;13.204;2022-10-16T03:20:25;18.50;75.10
25906;DHT22;13713;52.552;13.204;2022-10-16T03:22:51;18.60;75.20
25906;DHT22;13713;52.552;13.204;2022-10-16T03:25:17;18.60;75.20
25906;DHT22;13713;52.552;13.204;2022-10-16T03:27:42;18.60;75.10
25906;DHT22;13713;52.552;13.204;2022-10-16T03:30:09;18.60;75.00
25906;DHT22;13713;52.552;13.204;2022-10-16T03:32:34;18.60;75.00
25906;DHT22;13713;52.552;13.204;2022-10-16T03:35:00;18.60;75.10
25906;DHT22;13713;52.552;13.204;2022-10-16T03:37:26;18.60;75.00
25906;DHT22;13713;52.552;13.204;2022-10-16T03:39:51;18.60;75.00
25906;DHT22;13713;52.552;13.204;2022-10-16T03:42:17;18.50;74.90
25906;DHT22;13713;52.552;13.204;2022-10-16T03:44:43;18.60;75.00
25906;DHT22;13713;52.552;13.204;2022-10-16T03:47:08;18.60;75.00
25906;DHT22;13713;52.552;13.204;2022-10-16T03:49:34;18.60;75.00
25906;DHT22;13713;52.552;13.204;2022-10-16T03:51:59;18.60;75.00
25906;DHT22;13713;52.552;13.204;2022-10-16T03:54:25;18.60;75.00
25906;DHT22;13713;52.552;13.204;2022-10-16T03:56:51;18.60;75.00
25906;DHT22;13713;52.552;13.204;2022-10-16T03:59:17;18.60;75.00
25906;DHT22;13713;52.552;13.204;2022-10-16T04:01:43;18.50;74.90
25906;DHT22;13713;52.552;13.204;2022-10-16T04:04:09;18.60;75.00
25906;DHT22;13713;52.552;13.204;2022-10-16T04:06:34;18.50;74.90
25906;DHT22;13713;52.552;13.204;2022-10-16T04:09:00;18.60;75.00
25906;DHT22;13713;52.552;13.204;2022-10-16T04:11:25;18.60;75.00
25906;DHT22;13713;52.552;13.204;2022-10-16T04:13:51;18.60;75.00
25906;DHT22;13713;52.552;13.204;2022-10-16T04:16:17;18.50;74.80
25906;DHT22;13713;52.552;13.204;2022-10-16T04:18:42;18.60;74.90
25906;DHT22;13713;52.552;13.204;2022-10-16T04:21:08;18.60;74.90
25906;DHT22;13713;52.552;13.204;2022-10-16T04:23:33;18.50;74.90
25906;DHT22;13713;52.552;13.204;2022-10-16T04:26:00;18.60;75.00
25906;DHT22;13713;52.552;13.204;2022-10-16T04:28:26;18.60;75.00
25906;DHT22;13713;52.552;13.204;2022-10-16T04:30:52;18.50;74.90
25906;DHT22;13713;52.552;13.204;2022-10-16T04:33:17;18.60;75.00
25906;DHT22;13713;52.552;13.204;2022-10-16T04:35:43;18.60;75.00
25906;DHT22;13713;52.552;13.204;2022-10-16T04:38:09;18.70;75.00
25906;DHT22;13713;52.552;13.204;2022-10-16T04:40:34;18.60;75.00
25906;DHT22;13713;52.552;13.204;2022-10-16T04:43:02;18.50;74.80
25906;DHT22;13713;52.552;13.204;2022-10-16T04:45:28;18.50;74.90
25906;DHT22;13713;52.552;13.204;2022-10-16T04:47:59;18.60;74.90
25906;DHT22;13713;52.552;13.204;2022-10-16T04:50:26;18.50;74.80
25906;DHT22;13713;52.552;13.204;2022-10-16T04:53:04;18.50;74.80
25906;DHT22;13713;52.552;13.204;2022-10-16T04:55:30;18.60;74.90
25906;DHT22;13713;52.552;13.204;2022-10-16T04:57:56;18.60;74.90
25906;DHT22;13713;52.552;13.204;2022-10-16T05:00:22;18.50;74.80
25906;DHT22;13713;52.552;13.204;2022-10-16T05:02:49;18.50;74.80
25906;DHT22;13713;52.552;13.204;2022-10-16T05:05:15;18.60;74.90
25906;DHT22;13713;52.552;13.204;2022-10-16T05:07:40;18.60;74.80
25906;DHT22;13713;52.552;13.204;2022-10-16T05:10:06;18.60;74.80
25906;DHT22;13713;52.552;13.204;2022-10-16T05:12:33;18.50;74.70
25906;DHT22;13713;52.552;13.204;2022-10-16T05:14:59;18.50;74.80
25906;DHT22;13713;52.552;13.204;2022-10-16T05:17:25;18.50;74.80
25906;DHT22;13713;52.552;13.204;2022-10-16T05:19:51;18.50;74.80
25906;DHT22;13713;52.552;13.204;2022-10-16T05:22:17;18.50;74.90
25906;DHT22;13713;52.552;13.204;2022-10-16T05:24:42;18.50;74.80
25906;DHT22;13713;52.552;13.204;2022-10-16T05:27:08;18.60;74.90
25906;DHT22;13713;52.552;13.204;2022-10-16T05:29:34;18.50;74.70
25906;DHT22;13713;52.552;13.204;2022-10-16T05:32:00;18.60;74.90
25906;DHT22;13713;52.552;13.204;2022-10-16T05:34:26;18.50;74.80
25906;DHT22;13713;52.552;13.204;2022-10-16T05:36:51;18.50;74.80
25906;DHT22;13713;52.552;13.204;2022-10-16T05:39:17;18.50;74.80
25906;DHT22;13713;52.552;13.204;2022-10-16T05:41:43;18.60;74.80
25906;DHT22;13713;52.552;13.204;2022-10-16T05:44:09;18.50;74.80
25906;DHT22;13713;52.552;13.204;2022-10-16T05:46:34;18.50;74.80
25906;DHT22;13713;52.552;13.204;2022-10-16T05:49:00;18.50;74.70
25906;DHT22;13713;52.552;13.204;2022-10-16T05:51:26;18.50;74.80
25906;DHT22;13713;52.552;13.204;2022-10-16T05:53:52;18.50;74.80
25906;DHT22;13713;52.552;13.204;2022-10-16T05:56:18;18.50;74.70
25906;DHT22;13713;52.552;13.204;2022-10-16T05:58:43;18.50;74.70
25906;DHT22;13713;52.552;13.204;2022-10-16T06:01:15;18.50;74.70
25906;DHT22;13713;52.552;13.204;2022-10-16T06:03:41;18.50;74.70
25906;DHT22;13713;52.552;13.204;2022-10-16T06:06:14;18.50;74.90
25906;DHT22;13713;52.552;13.204;2022-10-16T06:08:42;18.50;74.70
25906;DHT22;13713;52.552;13.204;2022-10-16T06:11:10;18.50;74.70
25906;DHT22;13713;52.552;13.204;2022-10-16T06:13:36;18.50;74.70
25906;DHT22;13713;52.552;13.204;2022-10-16T06:16:03;18.50;74.70
25906;DHT22;13713;52.552;13.204;2022-10-16T06:18:29;18.50;74.70
25906;DHT22;13713;52.552;13.204;2022-10-16T06:20:55;18.60;74.80
25906;DHT22;13713;52.552;13.204;2022-10-16T06:23:21;18.50;74.70
25906;DHT22;13713;52.552;13.204;2022-10-16T06:25:47;18.50;74.80
25906;DHT22;13713;52.552;13.204;2022-10-16T06:28:14;18.50;74.70
25906;DHT22;13713;52.552;13.204;2022-10-16T06:30:40;18.50;74.70
25906;DHT22;13713;52.552;13.204;2022-10-16T06:33:05;18.50;74.70
25906;DHT22;13713;52.552;13.204;2022-10-16T06:35:31;18.50;74.70
25906;DHT22;13713;52.552;13.204;2022-10-16T06:37:57;18.50;74.70
25906;DHT22;13713;52.552;13.204;2022-10-16T06:40:23;18.50;74.70
25906;DHT22;13713;52.552;13.204;2022-10-16T06:42:49;18.50;74.70
25906;DHT22;13713;52.552;13.204;2022-10-16T06:45:14;18.50;74.70
25906;DHT22;13713;52.552;13.204;2022-10-16T06:47:40;18.50;74.70
25906;DHT22;13713;52.552;13.204;2022-10-16T06:50:06;18.50;74.70
25906;DHT22;13713;52.552;13.204;2022-10-16T06:52:34;18.60;74.80
25906;DHT22;13713;52.552;13.204;2022-10-16T06:55:00;18.50;74.70
25906;DHT22;13713;52.552;13.204;2022-10-16T06:57:26;18.50;74.70
25906;DHT22;13713;52.552;13.204;2022-10-16T06:59:52;18.50;74.70
25906;DHT22;13713;52.552;13.204;2022-10-16T07:02:17;18.50;74.80
25906;DHT22;13713;52.552;13.204;2022-10-16T07:04:43;18.50;74.70
25906;DHT22;13713;52.552;13.204;2022-10-16T07:07:08;18.50;74.70
25906;DHT22;13713;52.552;13.204;2022-10-16T07:09:34;18.50;74.70
25906;DHT22;13713;52.552;13.204;2022-10-16T07:12:00;18.50;74.80
25906;DHT22;13713;52.552;13.204;2022-10-16T07:14:25;18.50;74.90
25906;DHT22;13713;52.552;13.204;2022-10-16T07:16:51;18.50;74.80
25906;DHT22;13713;52.552;13.204;2022-10-16T07:19:17;18.50;74.90
25906;DHT22;13713;52.552;13.204;2022-10-16T07:21:44;18.50;75.00
25906;DHT22;13713;52.552;13.204;2022-10-16T07:24:13;18.50;74.80
25906;DHT22;13713;52.552;13.204;2022-10-16T07:26:40;18.50;74.90
25906;DHT22;13713;52.552;13.204;2022-10-16T07:29:17;18.50;74.90
25906;DHT22;13713;52.552;13.204;2022-10-16T07:31:43;18.50;75.00
25906;DHT22;13713;52.552;13.204;2022-10-16T07:34:11;18.50;74.90
25906;DHT22;13713;52.552;13.204;2022-10-16T07:36:36;18.50;74.90
25906;DHT22;13713;52.552;13.204;2022-10-16T07:39:02;18.50;75.00
25906;DHT22;13713;52.552;13.204;2022-10-16T07:41:28;18.50;75.00
25906;DHT22;13713;52.552;13.204;2022-10-16T07:43:54;18.50;74.90
25906;DHT22;13713;52.552;13.204;2022-10-16T07:46:22;18.50;74.90
25906;DHT22;13713;52.552;13.204;2022-10-16T07:48:48;18.50;75.00
25906;DHT22;13713;52.552;13.204;2022-10-16T07:51:16;18.50;74.90
25906;DHT22;13713;52.552;13.204;2022-10-16T07:53:41;18.50;75.00
25906;DHT22;13713;52.552;13.204;2022-10-16T07:56:08;18.50;75.00
25906;DHT22;13713;52.552;13.204;2022-10-16T07:58:34;18.50;74.90
25906;DHT22;13713;52.552;13.204;2022-10-16T08:01:20;18.50;74.90
25906;DHT22;13713;52.552;13.204;2022-10-16T08:03:48;18.50;74.90
25906;DHT22;13713;52.552;13.204;2022-10-16T08:06:14;18.50;74.90
25906;DHT22;13713;52.552;13.204;2022-10-16T08:08:40;18.50;74.90
25906;DHT22;13713;52.552;13.204;2022-10-16T08:11:06;18.50;74.90
25906;DHT22;13713;52.552;13.204;2022-10-16T08:13:32;18.50;75.00
25906;DHT22;13713;52.552;13.204;2022-10-16T08:15:57;18.50;74.90
25906;DHT22;13713;52.552;13.204;2022-10-16T08:18:23;18.50;75.00
25906;DHT22;13713;52.552;13.204;2022-10-16T08:20:55;18.50;75.00
25906;DHT22;13713;52.552;13.204;2022-10-16T08:23:22;18.50;75.00
25906;DHT22;13713;52.552;13.204;2022-10-16T08:25:47;18.50;74.90
25906;DHT22;13713;52.552;13.204;2022-10-16T08:28:13;18.50;74.90
25906;DHT22;13713;52.552;13.204;2022-10-16T08:30:39;18.50;74.90
25906;DHT22;13713;52.552;13.204;2022-10-16T08:33:05;18.50;75.00
25906;DHT22;13713;52.552;13.204;2022-10-16T08:35:31;18.50;74.90
25906;DHT22;13713;52.552;13.204;2022-10-16T08:37:57;18.50;74.90
25906;DHT22;13713;52.552;13.204;2022-10-16T08:48:49;18.50;74.90
25906;DHT22;13713;52.552;13.204;2022-10-16T08:51:36;18.50;74.90
25906;DHT22;13713;52.552;13.204;2022-10-16T08:54:04;18.50;74.90
25906;DHT22;13713;52.552;13.204;2022-10-16T08:56:30;18.50;74.80
25906;DHT22;13713;52.552;13.204;2022-10-16T08:58:58;18.50;74.80
25906;DHT22;13713;52.552;13.204;2022-10-16T09:01:32;18.60;74.90
25906;DHT22;13713;52.552;13.204;2022-10-16T09:04:35;18.60;75.00
25906;DHT22;13713;52.552;13.204;2022-10-16T09:10:07;18.50;74.80
25906;DHT22;13713;52.552;13.204;2022-10-16T09:12:48;18.50;74.80
25906;DHT22;13713;52.552;13.204;2022-10-16T09:15:21;18.50;74.80
25906;DHT22;13713;52.552;13.204;2022-10-16T09:18:12;18.50;74.80
25906;DHT22;13713;52.552;13.204;2022-10-16T09:21:18;18.50;74.80
25906;DHT22;13713;52.552;13.204;2022-10-16T09:23:45;18.60;74.80
25906;DHT22;13713;52.552;13.204;2022-10-16T09:26:13;18.60;74.90
25906;DHT22;13713;52.552;13.204;2022-10-16T09:28:39;18.60;74.80
25906;DHT22;13713;52.552;13.204;2022-10-16T09:31:07;18.60;74.90
25906;DHT22;13713;52.552;13.204;2022-10-16T09:33:36;18.60;74.90
25906;DHT22;13713;52.552;13.204;2022-10-16T09:36:04;18.60;74.90
25906;DHT22;13713;52.552;13.204;2022-10-16T09:38:32;18.60;74.80
25906;DHT22;13713;52.552;13.204;2022-10-16T09:41:00;18.60;74.80
25906;DHT22;13713;52.552;13.204;2022-10-16T09:46:25;18.60;75.60
25906;DHT22;13713;52.552;13.204;2022-10-16T09:48:54;18.60;74.80
25906;DHT22;13713;52.552;13.204;2022-10-16T09:53:53;18.70;74.90
25906;DHT22;13713;52.552;13.204;2022-10-16T09:56:30;18.60;74.80
25906;DHT22;13713;52.552;13.204;2022-10-16T09:59:00;18.60;74.80
25906;DHT22;13713;52.552;13.204;2022-10-16T10:01:35;18.60;74.80
25906;DHT22;13713;52.552;13.204;2022-10-16T10:04:03;18.60;74.90
25906;DHT22;13713;52.552;13.204;2022-10-16T10:06:32;18.60;74.90
25906;DHT22;13713;52.552;13.204;2022-10-16T10:09:15;18.60;74.90
25906;DHT22;13713;52.552;13.204;2022-10-16T10:11:46;18.60;74.90
25906;DHT22;13713;52.552;13.204;2022-10-16T10:16:47;18.60;74.90
25906;DHT22;13713;52.552;13.204;2022-10-16T10:19:18;18.60;74.90
25906;DHT22;13713;52.552;13.204;2022-10-16T10:21:44;18.60;74.90
25906;DHT22;13713;52.552;13.204;2022-10-16T10:24:15;18.60;75.00
25906;DHT22;13713;52.552;13.204;2022-10-16T10:27:02;18.60;75.00
25906;DHT22;13713;52.552;13.204;2022-10-16T10:29:50;18.60;75.00
25906;DHT22;13713;52.552;13.204;2022-10-16T10:32:41;18.60;75.00
25906;DHT22;13713;52.552;13.204;2022-10-16T10:35:18;18.60;74.90
25906;DHT22;13713;52.552;13.204;2022-10-16T10:40:40;18.60;75.00
25906;DHT22;13713;52.552;13.204;2022-10-16T10:46:25;18.60;74.90
25906;DHT22;13713;52.552;13.204;2022-10-16T10:49:16;18.60;75.00
25906;DHT22;13713;52.552;13.204;2022-10-16T10:52:02;18.60;75.00
25906;DHT22;13713;52.552;13.204;2022-10-16T10:54:47;18.60;75.00
25906;DHT22;13713;52.552;13.204;2022-10-16T11:00:10;18.60;74.90
25906;DHT22;13713;52.552;13.204;2022-10-16T11:02:44;18.60;74.90
25906;DHT22;13713;52.552;13.204;2022-10-16T11:05:40;18.60;74.90
25906;DHT22;13713;52.552;13.204;2022-10-16T11:11:10;18.60;75.00
25906;DHT22;13713;52.552;13.204;2022-10-16T11:16:17;18.60;75.00
25906;DHT22;13713;52.552;13.204;2022-10-16T11:18:55;18.60;74.90
25906;DHT22;13713;52.552;13.204;2022-10-16T11:21:22;18.70;75.00
25906;DHT22;13713;52.552;13.204;2022-10-16T11:24:14;18.60;74.90
25906;DHT22;13713;52.552;13.204;2022-10-16T11:26:42;18.70;75.00
25906;DHT22;13713;52.552;13.204;2022-10-16T11:29:24;18.70;75.00
25906;DHT22;13713;52.552;13.204;2022-10-16T11:31:52;18.70;74.90
25906;DHT22;13713;52.552;13.204;2022-10-16T11:34:41;18.70;74.90
25906;DHT22;13713;52.552;13.204;2022-10-16T11:37:14;18.70;75.00
25906;DHT22;13713;52.552;13.204;2022-10-16T11:39:43;18.70;74.90
25906;DHT22;13713;52.552;13.204;2022-10-16T11:44:44;18.70;75.70
25906;DHT22;13713;52.552;13.204;2022-10-16T11:47:42;18.60;74.90
25906;DHT22;13713;52.552;13.204;2022-10-16T11:50:26;18.70;75.00
25906;DHT22;13713;52.552;13.204;2022-10-16T11:53:04;18.70;75.00
25906;DHT22;13713;52.552;13.204;2022-10-16T11:55:39;18.70;74.90
25906;DHT22;13713;52.552;13.204;2022-10-16T11:58:35;18.70;75.00
25906;DHT22;13713;52.552;13.204;2022-10-16T12:01:22;18.70;75.00
25906;DHT22;13713;52.552;13.204;2022-10-16T12:04:20;18.70;75.00
25906;DHT22;13713;52.552;13.204;2022-10-16T12:07:09;18.70;75.00
25906;DHT22;13713;52.552;13.204;2022-10-16T12:09:38;18.70;75.00
25906;DHT22;13713;52.552;13.204;2022-10-16T12:12:05;18.70;75.00
25906;DHT22;13713;52.552;13.204;2022-10-16T12:14:59;18.70;75.00
25906;DHT22;13713;52.552;13.204;2022-10-16T12:17:37;18.70;75.00
25906;DHT22;13713;52.552;13.204;2022-10-16T12:22:51;18.70;75.00
25906;DHT22;13713;52.552;13.204;2022-10-16T12:25:36;18.70;75.00
25906;DHT22;13713;52.552;13.204;2022-10-16T12:28:19;18.70;75.00
25906;DHT22;13713;52.552;13.204;2022-10-16T12:31:00;18.70;74.90
25906;DHT22;13713;52.552;13.204;2022-10-16T12:33:33;18.70;74.90
25906;DHT22;13713;52.552;13.204;2022-10-16T12:36:02;18.70;74.90
25906;DHT22;13713;52.552;13.204;2022-10-16T12:38:52;18.70;74.90
25906;DHT22;13713;52.552;13.204;2022-10-16T12:43:51;18.70;74.90
25906;DHT22;13713;52.552;13.204;2022-10-16T12:48:43;18.70;74.90
25906;DHT22;13713;52.552;13.204;2022-10-16T12:53:58;18.70;74.90
25906;DHT22;13713;52.552;13.204;2022-10-16T12:59:25;18.70;75.00
25906;DHT22;13713;52.552;13.204;2022-10-16T13:05:13;18.70;75.00
25906;DHT22;13713;52.552;13.204;2022-10-16T13:13:14;18.70;74.90
25906;DHT22;13713;52.552;13.204;2022-10-16T13:15:56;18.70;75.00
25906;DHT22;13713;52.552;13.204;2022-10-16T13:18:33;18.70;74.90
25906;DHT22;13713;52.552;13.204;2022-10-16T13:21:17;18.70;75.00
25906;DHT22;13713;52.552;13.204;2022-10-16T13:26:41;18.70;75.00
25906;DHT22;13713;52.552;13.204;2022-10-16T13:29:10;18.70;74.90
25906;DHT22;13713;52.552;13.204;2022-10-16T13:31:37;18.70;74.90
25906;DHT22;13713;52.552;13.204;2022-10-16T13:34:03;18.70;74.90
25906;DHT22;13713;52.552;13.204;2022-10-16T13:36:43;18.70;74.90
25906;DHT22;13713;52.552;13.204;2022-10-16T13:39:15;18.80;74.90
25906;DHT22;13713;52.552;13.204;2022-10-16T13:41:57;18.70;74.80
25906;DHT22;13713;52.552;13.204;2022-10-16T13:44:23;18.70;74.90
25906;DHT22;13713;52.552;13.204;2022-10-16T13:46:58;18.70;75.60
25906;DHT22;13713;52.552;13.204;2022-10-16T13:49:24;18.70;74.90
25906;DHT22;13713;52.552;13.204;2022-10-16T13:51:58;18.70;74.80
25906;DHT22;13713;52.552;13.204;2022-10-16T13:54:25;18.70;74.80
25906;DHT22;13713;52.552;13.204;2022-10-16T13:56:52;18.70;74.80
25906;DHT22;13713;52.552;13.204;2022-10-16T13:59:33;18.70;74.80
25906;DHT22;13713;52.552;13.204;2022-10-16T14:01:59;18.70;74.80
25906;DHT22;13713;52.552;13.204;2022-10-16T14:04:30;18.70;74.80
25906;DHT22;13713;52.552;13.204;2022-10-16T14:06:57;18.70;74.80
25906;DHT22;13713;52.552;13.204;2022-10-16T14:09:28;18.70;74.80
25906;DHT22;13713;52.552;13.204;2022-10-16T14:12:00;18.70;74.80
25906;DHT22;13713;52.552;13.204;2022-10-16T14:14:53;18.70;74.80
25906;DHT22;13713;52.552;13.204;2022-10-16T14:17:23;18.70;74.80
25906;DHT22;13713;52.552;13.204;2022-10-16T14:19:50;18.70;74.80
25906;DHT22;13713;52.552;13.204;2022-10-16T14:22:40;18.70;74.80
25906;DHT22;13713;52.552;13.204;2022-10-16T14:27:44;18.70;74.70
25906;DHT22;13713;52.552;13.204;2022-10-16T14:30:21;18.70;74.70
25906;DHT22;13713;52.552;13.204;2022-10-16T14:32:58;18.70;74.70
25906;DHT22;13713;52.552;13.204;2022-10-16T14:37:56;18.70;74.70
25906;DHT22;13713;52.552;13.204;2022-10-16T14:40:26;18.70;74.70
25906;DHT22;13713;52.552;13.204;2022-10-16T14:42:52;18.70;74.70
25906;DHT22;13713;52.552;13.204;2022-10-16T14:45:24;18.70;74.70
25906;DHT22;13713;52.552;13.204;2022-10-16T14:47:55;18.70;74.70
25906;DHT22;13713;52.552;13.204;2022-10-16T14:50:22;18.70;74.70
25906;DHT22;13713;52.552;13.204;2022-10-16T14:52:48;18.70;74.60
25906;DHT22;13713;52.552;13.204;2022-10-16T14:55:14;18.70;74.70
25906;DHT22;13713;52.552;13.204;2022-10-16T14:57:40;18.70;74.70
25906;DHT22;13713;52.552;13.204;2022-10-16T15:00:19;18.70;74.70
25906;DHT22;13713;52.552;13.204;2022-10-16T15:02:45;18.70;74.60
25906;DHT22;13713;52.552;13.204;2022-10-16T15:05:22;18.70;74.70
25906;DHT22;13713;52.552;13.204;2022-10-16T15:07:49;18.70;74.60
25906;DHT22;13713;52.552;13.204;2022-10-16T15:10:16;18.70;74.60
25906;DHT22;13713;52.552;13.204;2022-10-16T15:12:42;18.70;74.60
25906;DHT22;13713;52.552;13.204;2022-10-16T15:15:28;18.70;74.60
25906;DHT22;13713;52.552;13.204;2022-10-16T15:17:56;18.60;74.60
25906;DHT22;13713;52.552;13.204;2022-10-16T15:20:35;18.70;74.60
25906;DHT22;13713;52.552;13.204;2022-10-16T15:23:08;18.70;74.60
25906;DHT22;13713;52.552;13.204;2022-10-16T15:25:44;18.70;74.60
25906;DHT22;13713;52.552;13.204;2022-10-16T15:28:11;18.70;74.60
25906;DHT22;13713;52.552;13.204;2022-10-16T15:30:37;18.70;74.60
25906;DHT22;13713;52.552;13.204;2022-10-16T15:33:04;18.70;74.60
25906;DHT22;13713;52.552;13.204;2022-10-16T15:35:30;18.70;74.60
25906;DHT22;13713;52.552;13.204;2022-10-16T15:37:56;18.70;74.60
25906;DHT22;13713;52.552;13.204;2022-10-16T15:40:22;18.70;74.60
25906;DHT22;13713;52.552;13.204;2022-10-16T15:42:48;18.70;74.60
25906;DHT22;13713;52.552;13.204;2022-10-16T15:45:15;18.70;74.60
25906;DHT22;13713;52.552;13.204;2022-10-16T15:47:41;18.60;74.50
25906;DHT22;13713;52.552;13.204;2022-10-16T15:50:10;18.70;74.60
25906;DHT22;13713;52.552;13.204;2022-10-16T15:52:36;18.70;74.60
25906;DHT22;13713;52.552;13.204;2022-10-16T15:55:05;18.70;75.40
25906;DHT22;13713;52.552;13.204;2022-10-16T15:57:30;18.70;74.60
25906;DHT22;13713;52.552;13.204;2022-10-16T15:59:56;18.70;74.60
25906;DHT22;13713;52.552;13.204;2022-10-16T16:02:22;18.70;74.60
25906;DHT22;13713;52.552;13.204;2022-10-16T16:04:47;18.60;74.60
25906;DHT22;13713;52.552;13.204;2022-10-16T16:07:13;18.70;74.60
25906;DHT22;13713;52.552;13.204;2022-10-16T16:09:38;18.60;74.60
25906;DHT22;13713;52.552;13.204;2022-10-16T16:12:04;18.60;74.60
25906;DHT22;13713;52.552;13.204;2022-10-16T16:14:30;18.70;74.60
25906;DHT22;13713;52.552;13.204;2022-10-16T16:16:56;18.70;74.70
25906;DHT22;13713;52.552;13.204;2022-10-16T16:19:22;18.60;74.60
25906;DHT22;13713;52.552;13.204;2022-10-16T16:21:48;18.60;74.70
25906;DHT22;13713;52.552;13.204;2022-10-16T16:24:14;18.60;74.70
25906;DHT22;13713;52.552;13.204;2022-10-16T16:26:39;18.60;74.70
25906;DHT22;13713;52.552;13.204;2022-10-16T16:29:13;18.60;74.70
25906;DHT22;13713;52.552;13.204;2022-10-16T16:31:39;18.60;74.70
25906;DHT22;13713;52.552;13.204;2022-10-16T16:34:05;18.60;74.70
25906;DHT22;13713;52.552;13.204;2022-10-16T16:36:31;18.60;74.70
25906;DHT22;13713;52.552;13.204;2022-10-16T16:38:57;18.60;74.70
25906;DHT22;13713;52.552;13.204;2022-10-16T16:41:25;18.60;74.70
25906;DHT22;13713;52.552;13.204;2022-10-16T16:43:52;18.60;75.50
25906;DHT22;13713;52.552;13.204;2022-10-16T16:46:18;18.60;74.70
25906;DHT22;13713;52.552;13.204;2022-10-16T16:48:45;18.60;74.70
25906;DHT22;13713;52.552;13.204;2022-10-16T16:51:16;18.60;74.80